Time;durP1;ratioP1;P1;durP2;ratioP2;P2;SDS_P1;SDS_P2;PMS_P1;PMS_P2;Temp;Humidity;BMP_temperature;BMP_pressure;BME280_temperature;BME280_humidity;BME280_pressure;Samples;Min_cycle;Max_cycle;Signal;HPM_P1;HPM_P2
2024/01/13 00:00:16;;;;;;;16.48;8.70;;;;;;;;;;4995384;28;20039;-78
2024/01/13 00:02:41;;;;;;;16.77;8.77;;;;;;;;;;5000302;28;20048;-78
2024/01/13 00:05:06;;;;;;;16.95;8.52;;;;;;;;;;4998900;28;20038;-78
2024/01/13 00:07:31;;;;;;;14.18;8.20;;;;;;;;;;4997547;28;20081;-78
2024/01/13 00:09:56;;;;;;;14.88;7.90;;;;;;;;;;4981287;28;20109;-78
2024/01/13 00:12:22;;;;;;;17.77;8.85;;;;;;;;;;4993922;28;20045;-78
2024/01/13 00:14:47;;;;;;;15.43;8.40;;;;;;;;;;4995265;28;20034;-77
2024/01/13 00:17:12;;;;;;;15.35;8.65;;;;;;;;;;4999726;28;20045;-78
2024/01/13 00:19:37;;;;;;;15.82;8.85;;;;;;;;;;4998750;28;20033;-78
2024/01/13 00:22:02;;;;;;;19.27;9.82;;;;;;;;;;4997115;28;20105;-78
2024/01/13 00:24:28;;;;;;;16.73;8.63;;;;;;;;;;4982428;28;20104;-78
2024/01/13 00:26:53;;;;;;;16.23;8.75;;;;;;;;;;4995942;28;20097;-79
2024/01/13 00:29:18;;;;;;;18.20;9.65;;;;;;;;;;4993868;28;20022;-78
2024/01/13 00:31:43;;;;;;;14.90;8.10;;;;;;;;;;4978807;28;20391;-78
2024/01/13 00:34:08;;;;;;;13.77;8.15;;;;;;;;;;4995839;28;20010;-78
2024/01/13 00:36:33;;;;;;;18.38;8.48;;;;;;;;;;4989614;28;20037;-78
2024/01/13 00:38:59;;;;;;;16.77;8.02;;;;;;;;;;4999825;28;20029;-78
2024/01/13 00:41:24;;;;;;;13.38;7.30;;;;;;;;;;4995620;28;20038;-78
2024/01/13 00:43:49;;;;;;;12.73;7.22;;;;;;;;;;4993097;28;20434;-78
2024/01/13 00:46:14;;;;;;;13.68;7.90;;;;;;;;;;4978991;28;20118;-79
2024/01/13 00:48:40;;;;;;;15.90;8.30;;;;;;;;;;5000693;28;20038;-78
2024/01/13 00:51:07;;;;;;;16.70;8.63;;;;;;;;;;5002728;28;20085;-78
2024/01/13 00:53:32;;;;;;;16.45;8.68;;;;;;;;;;5003509;28;20398;-79
2024/01/13 00:55:57;;;;;;;13.75;8.38;;;;;;;;;;4996380;28;20027;-78
2024/01/13 00:58:22;;;;;;;13.18;7.35;;;;;;;;;;4997938;28;20038;-79
2024/01/13 01:00:47;;;;;;;17.85;8.77;;;;;;;;;;4998898;28;20061;-78
2024/01/13 01:03:13;;;;;;;16.75;8.77;;;;;;;;;;5002520;28;20049;-78
2024/01/13 01:05:38;;;;;;;14.07;8.45;;;;;;;;;;4996299;28;20033;-78
2024/01/13 01:08:03;;;;;;;14.25;7.57;;;;;;;;;;5002229;28;20050;-78
2024/01/13 01:10:28;;;;;;;14.70;8.00;;;;;;;;;;4998011;28;20483;-78
2024/01/13 01:12:53;;;;;;;15.48;7.95;;;;;;;;;;4979569;28;20034;-77
2024/01/13 01:15:19;;;;;;;14.23;8.27;;;;;;;;;;5000082;28;20033;-78
2024/01/13 01:17:44;;;;;;;16.45;9.05;;;;;;;;;;5000087;28;20660;-78
2024/01/13 01:20:09;;;;;;;15.27;7.65;;;;;;;;;;4987061;28;20044;-78
2024/01/13 01:22:34;;;;;;;14.82;8.15;;;;;;;;;;4997932;28;20045;-78
2024/01/13 01:25:00;;;;;;;11.98;7.40;;;;;;;;;;4982159;28;20403;-78
2024/01/13 01:27:25;;;;;;;15.90;9.32;;;;;;;;;;4981705;28;20049;-79
2024/01/13 01:29:50;;;;;;;15.13;8.23;;;;;;;;;;4996347;28;20038;-78
2024/01/13 01:32:15;;;;;;;13.98;8.15;;;;;;;;;;5000936;28;20065;-78
2024/01/13 01:34:40;;;;;;;13.35;7.38;;;;;;;;;;5000875;28;20499;-78
2024/01/13 01:37:06;;;;;;;14.10;7.50;;;;;;;;;;4997892;28;20023;-77
2024/01/13 01:39:31;;;;;;;13.23;8.18;;;;;;;;;;4998245;28;20506;-77
2024/01/13 01:41:56;;;;;;;14.05;7.75;;;;;;;;;;4996535;28;20062;-78
2024/01/13 01:44:21;;;;;;;14.02;8.13;;;;;;;;;;5001536;28;20084;-78
2024/01/13 01:46:47;;;;;;;13.70;7.47;;;;;;;;;;5001286;28;20026;-80
2024/01/13 01:49:13;;;;;;;14.65;8.18;;;;;;;;;;4986444;28;20034;-79
2024/01/13 01:51:38;;;;;;;14.57;7.93;;;;;;;;;;4998629;28;20031;-79
2024/01/13 01:54:03;;;;;;;12.40;7.70;;;;;;;;;;4998478;28;20030;-79
2024/01/13 01:56:30;;;;;;;12.75;7.25;;;;;;;;;;5001137;28;20030;-79
2024/01/13 01:58:56;;;;;;;14.55;8.00;;;;;;;;;;4995581;28;20026;-78
2024/01/13 02:01:24;;;;;;;17.38;8.32;;;;;;;;;;4983271;28;20038;-78
2024/01/13 02:03:51;;;;;;;12.68;7.93;;;;;;;;;;4999163;28;20049;-78
2024/01/13 02:06:16;;;;;;;13.35;8.15;;;;;;;;;;5001322;28;20022;-78
2024/01/13 02:08:41;;;;;;;14.70;8.10;;;;;;;;;;4996843;28;20029;-78
2024/01/13 02:11:10;;;;;;;12.45;7.43;;;;;;;;;;5000261;28;20021;-78
2024/01/13 02:13:35;;;;;;;13.15;7.28;;;;;;;;;;4993813;28;20034;-78
2024/01/13 02:16:01;;;;;;;12.70;7.63;;;;;;;;;;5001018;28;20121;-78
2024/01/13 02:18:26;;;;;;;17.35;8.07;;;;;;;;;;4999861;28;20066;-80
2024/01/13 02:20:52;;;;;;;11.48;7.15;;;;;;;;;;4995134;28;20106;-77
2024/01/13 02:23:17;;;;;;;13.27;7.47;;;;;;;;;;4999183;28;20030;-78
2024/01/13 02:25:42;;;;;;;15.30;8.73;;;;;;;;;;4996822;28;20369;-78
2024/01/13 02:28:07;;;;;;;13.00;8.18;;;;;;;;;;4998425;28;20030;-75
2024/01/13 02:30:32;;;;;;;15.15;8.63;;;;;;;;;;5002024;28;20467;-76
2024/01/13 02:32:57;;;;;;;15.90;8.50;;;;;;;;;;4993281;28;20109;-76
2024/01/13 02:35:22;;;;;;;13.70;7.93;;;;;;;;;;4997193;28;20113;-77
2024/01/13 02:37:48;;;;;;;13.65;7.63;;;;;;;;;;4996181;28;20038;-77
2024/01/13 02:40:13;;;;;;;16.45;9.15;;;;;;;;;;5000108;28;20053;-77
2024/01/13 02:42:38;;;;;;;14.38;8.02;;;;;;;;;;4995291;28;20039;-78
2024/01/13 02:45:03;;;;;;;12.68;7.47;;;;;;;;;;4999284;28;20030;-77
2024/01/13 02:47:36;;;;;;;13.82;8.02;;;;;;;;;;4999045;28;20554;-78
2024/01/13 02:50:01;;;;;;;14.05;9.10;;;;;;;;;;4993924;28;20041;-78
2024/01/13 02:52:26;;;;;;;13.63;7.72;;;;;;;;;;4997533;28;20026;-77
2024/01/13 02:54:51;;;;;;;14.75;8.05;;;;;;;;;;4999603;28;20061;-77
2024/01/13 02:57:16;;;;;;;15.15;8.35;;;;;;;;;;4999957;28;20033;-77
2024/01/13 02:59:41;;;;;;;13.65;9.00;;;;;;;;;;4995302;28;20030;-77
2024/01/13 03:02:07;;;;;;;15.52;9.00;;;;;;;;;;4993030;28;20446;-77
2024/01/13 03:04:32;;;;;;;12.65;7.68;;;;;;;;;;4993996;28;20023;-77
2024/01/13 03:06:57;;;;;;;13.90;8.40;;;;;;;;;;4995715;28;20483;-76
2024/01/13 03:09:22;;;;;;;15.75;9.13;;;;;;;;;;4991083;28;20037;-76
2024/01/13 03:11:48;;;;;;;14.23;8.68;;;;;;;;;;4982399;28;20076;-76
2024/01/13 03:14:13;;;;;;;13.70;8.20;;;;;;;;;;4997040;28;20031;-76
2024/01/13 03:16:38;;;;;;;14.15;8.60;;;;;;;;;;4995850;28;20501;-76
2024/01/13 03:19:04;;;;;;;14.02;8.63;;;;;;;;;;4993841;28;20490;-76
2024/01/13 03:21:29;;;;;;;14.02;7.97;;;;;;;;;;4997874;28;20042;-77
2024/01/13 03:23:54;;;;;;;12.25;7.93;;;;;;;;;;4997342;28;20105;-76
2024/01/13 03:26:19;;;;;;;15.27;8.88;;;;;;;;;;5002410;28;20038;-76
2024/01/13 03:28:44;;;;;;;14.02;8.52;;;;;;;;;;4992146;28;20113;-76
2024/01/13 03:31:10;;;;;;;14.38;8.60;;;;;;;;;;4993222;28;20406;-76
2024/01/13 03:33:35;;;;;;;15.10;8.43;;;;;;;;;;4999677;28;20046;-76
2024/01/13 03:36:00;;;;;;;14.15;8.55;;;;;;;;;;4995870;28;20111;-76
2024/01/13 03:38:27;;;;;;;12.95;7.70;;;;;;;;;;4999907;28;20041;-76
2024/01/13 03:40:52;;;;;;;13.73;9.30;;;;;;;;;;4980845;28;20030;-76
2024/01/13 03:43:17;;;;;;;14.50;8.35;;;;;;;;;;4995066;28;20080;-76
2024/01/13 03:45:42;;;;;;;13.25;8.00;;;;;;;;;;4993651;28;20061;-76
2024/01/13 03:48:07;;;;;;;15.48;8.80;;;;;;;;;;4996809;28;20076;-76
2024/01/13 03:50:33;;;;;;;16.15;9.15;;;;;;;;;;4998466;28;20034;-76
2024/01/13 03:52:58;;;;;;;13.65;8.63;;;;;;;;;;4997023;28;20384;-75
2024/01/13 03:55:23;;;;;;;13.32;7.93;;;;;;;;;;4998252;28;20427;-75
2024/01/13 03:57:48;;;;;;;14.40;9.10;;;;;;;;;;4992875;28;20106;-75
2024/01/13 04:00:14;;;;;;;13.80;8.75;;;;;;;;;;4993367;28;20034;-75
2024/01/13 04:02:39;;;;;;;13.02;8.80;;;;;;;;;;4992984;28;20030;-76
2024/01/13 04:05:04;;;;;;;13.15;7.93;;;;;;;;;;4996530;28;20026;-75
2024/01/13 04:07:29;;;;;;;14.68;8.73;;;;;;;;;;5001350;28;20569;-76
2024/01/13 04:09:54;;;;;;;14.90;9.35;;;;;;;;;;4990690;28;20026;-76
2024/01/13 04:12:21;;;;;;;14.52;9.65;;;;;;;;;;4992510;28;20049;-76
2024/01/13 04:14:46;;;;;;;12.40;8.25;;;;;;;;;;4981397;28;20105;-76
2024/01/13 04:17:11;;;;;;;14.48;9.25;;;;;;;;;;4997032;28;20109;-75
2024/01/13 04:19:36;;;;;;;13.95;8.68;;;;;;;;;;4997934;28;20533;-75
2024/01/13 04:22:01;;;;;;;13.45;8.50;;;;;;;;;;4994902;28;20030;-76
2024/01/13 04:24:26;;;;;;;16.25;9.65;;;;;;;;;;5001890;28;20458;-75
2024/01/13 04:26:52;;;;;;;14.57;8.75;;;;;;;;;;4999645;28;20031;-76
2024/01/13 04:29:17;;;;;;;12.48;7.88;;;;;;;;;;5002074;28;20136;-76
2024/01/13 04:31:42;;;;;;;12.63;7.85;;;;;;;;;;5001010;28;20049;-76
2024/01/13 04:34:07;;;;;;;13.25;8.13;;;;;;;;;;5000961;28;20079;-76
2024/01/13 04:36:32;;;;;;;14.32;8.25;;;;;;;;;;5000826;28;20061;-76
2024/01/13 04:38:58;;;;;;;13.55;7.75;;;;;;;;;;4988050;28;20034;-76
2024/01/13 04:41:23;;;;;;;11.10;6.70;;;;;;;;;;4997459;28;20675;-75
2024/01/13 04:43:49;;;;;;;12.55;7.18;;;;;;;;;;4999815;28;20049;-76
2024/01/13 04:46:14;;;;;;;11.25;6.95;;;;;;;;;;5000329;28;20038;-75
2024/01/13 04:48:39;;;;;;;12.48;7.32;;;;;;;;;;5000150;28;20034;-76
2024/01/13 04:51:05;;;;;;;12.25;7.22;;;;;;;;;;4984157;28;20522;-76
2024/01/13 04:53:30;;;;;;;14.25;7.38;;;;;;;;;;5000508;28;20057;-76
2024/01/13 04:55:56;;;;;;;12.38;7.80;;;;;;;;;;4999338;28;20034;-76
2024/01/13 04:58:21;;;;;;;12.18;7.82;;;;;;;;;;4982426;28;20038;-76
2024/01/13 05:00:47;;;;;;;11.70;7.47;;;;;;;;;;4982842;28;20042;-76
2024/01/13 05:03:12;;;;;;;11.52;6.78;;;;;;;;;;5001804;28;20405;-76
2024/01/13 05:05:37;;;;;;;13.32;8.02;;;;;;;;;;4996348;28;20043;-76
2024/01/13 05:08:03;;;;;;;11.48;6.65;;;;;;;;;;4986763;28;20118;-76
2024/01/13 05:10:28;;;;;;;13.73;7.68;;;;;;;;;;5002696;28;20092;-76
2024/01/13 05:12:53;;;;;;;11.75;7.63;;;;;;;;;;4997447;28;20034;-76
2024/01/13 05:15:18;;;;;;;10.73;6.65;;;;;;;;;;4982507;28;20050;-76
2024/01/13 05:17:43;;;;;;;11.95;7.15;;;;;;;;;;5002046;28;20029;-76
2024/01/13 05:20:09;;;;;;;11.75;6.90;;;;;;;;;;4993726;28;20487;-76
2024/01/13 05:22:34;;;;;;;12.60;6.78;;;;;;;;;;4997178;28;20041;-76
2024/01/13 05:25:00;;;;;;;12.13;7.50;;;;;;;;;;5001209;28;20038;-76
2024/01/13 05:27:25;;;;;;;11.70;7.20;;;;;;;;;;4999609;28;20042;-76
2024/01/13 05:29:50;;;;;;;12.60;7.13;;;;;;;;;;4985346;28;20022;-76
2024/01/13 05:32:15;;;;;;;11.75;7.18;;;;;;;;;;5001261;28;20514;-76
2024/01/13 05:34:41;;;;;;;10.38;6.53;;;;;;;;;;4997762;28;20035;-76
2024/01/13 05:37:06;;;;;;;11.98;7.53;;;;;;;;;;4983511;28;20100;-76
2024/01/13 05:39:32;;;;;;;11.48;7.20;;;;;;;;;;4998008;28;20042;-76
2024/01/13 05:41:58;;;;;;;13.00;7.85;;;;;;;;;;4998345;28;20498;-76
2024/01/13 05:44:23;;;;;;;12.68;6.95;;;;;;;;;;5003046;28;20041;-76
2024/01/13 05:46:48;;;;;;;13.18;8.27;;;;;;;;;;4979446;28;20414;-76
2024/01/13 05:49:13;;;;;;;12.75;6.68;;;;;;;;;;4993777;28;20022;-76
2024/01/13 05:51:38;;;;;;;14.07;7.18;;;;;;;;;;4997205;28;20087;-75
2024/01/13 05:54:04;;;;;;;12.23;7.60;;;;;;;;;;4996669;28;20022;-75
2024/01/13 05:56:30;;;;;;;11.80;7.60;;;;;;;;;;5002508;28;20061;-76
2024/01/13 05:58:55;;;;;;;12.02;7.30;;;;;;;;;;4998478;28;20053;-76
2024/01/13 06:01:20;;;;;;;14.32;7.97;;;;;;;;;;4996877;28;20143;-76
2024/01/13 06:03:45;;;;;;;14.55;7.72;;;;;;;;;;4996309;28;20026;-76
2024/01/13 06:06:11;;;;;;;13.48;8.68;;;;;;;;;;4995715;28;20104;-76
2024/01/13 06:08:36;;;;;;;14.80;8.23;;;;;;;;;;4996831;28;20034;-73
2024/01/13 06:11:01;;;;;;;12.60;7.88;;;;;;;;;;5002836;28;20024;-73
2024/01/13 06:13:26;;;;;;;15.43;8.45;;;;;;;;;;4995743;28;20541;-74
2024/01/13 06:15:51;;;;;;;14.38;8.40;;;;;;;;;;4996514;28;20026;-74
2024/01/13 06:18:17;;;;;;;13.90;8.02;;;;;;;;;;4996956;28;20038;-74
2024/01/13 06:20:42;;;;;;;15.65;8.93;;;;;;;;;;4995585;28;20113;-74
2024/01/13 06:23:07;;;;;;;14.18;7.97;;;;;;;;;;4979762;28;20480;-73
2024/01/13 06:25:32;;;;;;;13.93;7.93;;;;;;;;;;4996706;28;20034;-74
2024/01/13 06:27:57;;;;;;;14.48;8.73;;;;;;;;;;4994277;28;20481;-73
2024/01/13 06:30:22;;;;;;;14.02;7.97;;;;;;;;;;4994511;28;20038;-74
2024/01/13 06:32:48;;;;;;;15.20;8.27;;;;;;;;;;4997565;28;20034;-75
2024/01/13 06:35:13;;;;;;;13.98;7.78;;;;;;;;;;4995788;28;20031;-73
2024/01/13 06:37:38;;;;;;;15.15;8.60;;;;;;;;;;4998111;28;20025;-74
2024/01/13 06:40:04;;;;;;;16.10;8.00;;;;;;;;;;4990828;28;20048;-73
2024/01/13 06:42:29;;;;;;;15.68;9.25;;;;;;;;;;4997584;28;20399;-74
2024/01/13 06:44:55;;;;;;;16.15;9.20;;;;;;;;;;4994748;28;20061;-73
2024/01/13 06:47:20;;;;;;;15.98;8.20;;;;;;;;;;4997662;28;20045;-73
2024/01/13 06:49:45;;;;;;;15.93;9.02;;;;;;;;;;4999695;28;20053;-73
2024/01/13 06:52:12;;;;;;;15.57;8.80;;;;;;;;;;4996906;28;20038;-73
2024/01/13 06:54:37;;;;;;;15.57;9.55;;;;;;;;;;5000855;28;20735;-73
2024/01/13 06:57:02;;;;;;;16.65;9.18;;;;;;;;;;4992340;28;20110;-73
2024/01/13 06:59:28;;;;;;;16.92;9.40;;;;;;;;;;4997563;28;20117;-73
2024/01/13 07:01:53;;;;;;;16.42;9.80;;;;;;;;;;5000269;28;20033;-73
2024/01/13 07:04:18;;;;;;;15.68;9.45;;;;;;;;;;4997532;28;20546;-73
2024/01/13 07:06:43;;;;;;;14.82;9.18;;;;;;;;;;4996065;28;20034;-73
2024/01/13 07:09:09;;;;;;;15.65;9.27;;;;;;;;;;4997314;28;20026;-73
2024/01/13 07:11:34;;;;;;;17.08;9.63;;;;;;;;;;4992927;28;20097;-73
2024/01/13 07:13:59;;;;;;;15.80;9.45;;;;;;;;;;4993507;28;20022;-73
2024/01/13 07:16:24;;;;;;;15.73;8.82;;;;;;;;;;4996359;28;20058;-73
2024/01/13 07:18:49;;;;;;;19.58;8.73;;;;;;;;;;4997946;28;20106;-73
2024/01/13 07:21:15;;;;;;;13.70;9.18;;;;;;;;;;4998378;28;20104;-73
2024/01/13 07:23:43;;;;;;;16.55;9.60;;;;;;;;;;5000407;28;20084;-73
2024/01/13 07:26:09;;;;;;;14.85;8.63;;;;;;;;;;4975311;28;20100;-73
2024/01/13 07:28:34;;;;;;;14.27;8.65;;;;;;;;;;4991709;28;20034;-73
2024/01/13 07:30:59;;;;;;;13.40;7.53;;;;;;;;;;4997220;28;20640;-73
2024/01/13 07:33:24;;;;;;;13.50;7.50;;;;;;;;;;4998221;28;20035;-73
2024/01/13 07:35:49;;;;;;;15.02;8.75;;;;;;;;;;4999015;28;20542;-73
2024/01/13 07:38:15;;;;;;;14.70;8.00;;;;;;;;;;4991023;28;20027;-73
2024/01/13 07:40:40;;;;;;;14.90;8.35;;;;;;;;;;4998393;28;20113;-77
2024/01/13 07:43:05;;;;;;;14.00;7.70;;;;;;;;;;4989264;28;20030;-74
2024/01/13 07:45:30;;;;;;;12.10;7.18;;;;;;;;;;4997590;28;20491;-74
2024/01/13 07:47:56;;;;;;;13.63;8.18;;;;;;;;;;4996725;28;20038;-74
2024/01/13 07:50:21;;;;;;;15.05;8.93;;;;;;;;;;4996456;28;20041;-74
2024/01/13 07:52:46;;;;;;;14.50;7.20;;;;;;;;;;4991410;28;20095;-74
2024/01/13 07:55:11;;;;;;;14.27;8.23;;;;;;;;;;4993015;28;20034;-73
2024/01/13 07:57:37;;;;;;;13.50;7.38;;;;;;;;;;5001981;28;20041;-74
2024/01/13 08:00:02;;;;;;;11.93;7.00;;;;;;;;;;5001968;28;20437;-74
2024/01/13 08:02:37;;;;;;;13.15;7.10;;;;;;;;;;4995458;28;20058;-74
2024/01/13 08:05:02;;;;;;;12.60;7.90;;;;;;;;;;4986879;28;20426;-73
2024/01/13 08:07:28;;;;;;;12.77;7.55;;;;;;;;;;5001763;28;20023;-73
2024/01/13 08:09:53;;;;;;;11.57;6.90;;;;;;;;;;4999423;28;20847;-73
2024/01/13 08:12:18;;;;;;;11.30;6.93;;;;;;;;;;5001217;28;20022;-73
2024/01/13 08:14:43;;;;;;;13.10;7.65;;;;;;;;;;4999557;28;20786;-73
2024/01/13 08:17:08;;;;;;;14.07;6.85;;;;;;;;;;5007769;28;20022;-74
2024/01/13 08:19:35;;;;;;;12.55;7.28;;;;;;;;;;5007531;28;20608;-74
2024/01/13 08:22:00;;;;;;;13.35;7.05;;;;;;;;;;4998735;28;20034;-74
2024/01/13 08:24:25;;;;;;;12.00;7.25;;;;;;;;;;5002064;28;20396;-74
2024/01/13 08:26:50;;;;;;;14.02;7.35;;;;;;;;;;5002475;28;20037;-74
2024/01/13 08:29:15;;;;;;;11.20;6.85;;;;;;;;;;5005834;28;20081;-74
2024/01/13 08:31:41;;;;;;;11.98;6.60;;;;;;;;;;5004213;28;20034;-74
2024/01/13 08:34:06;;;;;;;10.85;6.65;;;;;;;;;;5000935;28;20109;-74
2024/01/13 08:36:31;;;;;;;11.95;6.75;;;;;;;;;;4999704;28;20081;-73
2024/01/13 08:38:57;;;;;;;11.35;6.72;;;;;;;;;;5001159;28;20407;-74
2024/01/13 08:41:22;;;;;;;10.73;6.65;;;;;;;;;;5003289;28;20062;-74
2024/01/13 08:43:48;;;;;;;12.18;7.05;;;;;;;;;;5004336;28;20414;-74
2024/01/13 08:46:13;;;;;;;11.77;7.18;;;;;;;;;;5005177;28;20042;-74
2024/01/13 08:48:39;;;;;;;10.90;6.70;;;;;;;;;;4999132;28;20110;-74
2024/01/13 08:51:04;;;;;;;13.02;7.85;;;;;;;;;;4998377;28;20402;-74
2024/01/13 08:53:29;;;;;;;11.05;6.85;;;;;;;;;;5004831;28;20037;-74
2024/01/13 08:55:54;;;;;;;12.07;6.88;;;;;;;;;;5005489;28;20415;-74
2024/01/13 08:58:19;;;;;;;12.38;6.18;;;;;;;;;;5004215;28;20497;-74
2024/01/13 09:00:45;;;;;;;10.57;6.32;;;;;;;;;;5005673;28;20034;-74
2024/01/13 09:03:10;;;;;;;12.18;6.97;;;;;;;;;;4972308;28;20052;-74
2024/01/13 09:05:36;;;;;;;10.90;6.40;;;;;;;;;;5005130;28;20569;-74
2024/01/13 09:08:02;;;;;;;11.30;6.80;;;;;;;;;;4984440;28;20085;-74
2024/01/13 09:10:27;;;;;;;10.32;6.32;;;;;;;;;;4983818;28;20133;-74
2024/01/13 09:12:52;;;;;;;11.27;5.90;;;;;;;;;;5001109;28;20033;-74
2024/01/13 09:15:17;;;;;;;10.07;5.85;;;;;;;;;;4994371;28;20545;-74
2024/01/13 09:17:42;;;;;;;9.52;5.82;;;;;;;;;;4995807;28;20030;-75
2024/01/13 09:20:10;;;;;;;10.38;6.13;;;;;;;;;;4998081;28;20054;-75
2024/01/13 09:22:36;;;;;;;12.23;6.07;;;;;;;;;;4997738;28;20038;-74
2024/01/13 09:25:01;;;;;;;9.93;6.35;;;;;;;;;;4998899;28;20415;-75
2024/01/13 09:27:28;;;;;;;10.57;6.22;;;;;;;;;;4999271;28;20050;-75
2024/01/13 09:29:53;;;;;;;9.68;5.75;;;;;;;;;;4996890;28;20028;-75
2024/01/13 09:32:18;;;;;;;10.27;6.05;;;;;;;;;;4989477;28;20494;-75
2024/01/13 09:34:43;;;;;;;11.20;6.15;;;;;;;;;;4986814;28;20038;-76
2024/01/13 09:37:10;;;;;;;11.88;6.07;;;;;;;;;;4998956;28;20030;-74
2024/01/13 09:39:35;;;;;;;10.70;6.13;;;;;;;;;;5000258;28;20045;-76
2024/01/13 09:42:01;;;;;;;10.18;5.80;;;;;;;;;;5000089;28;20030;-75
2024/01/13 09:44:27;;;;;;;10.63;5.88;;;;;;;;;;4992792;28;20510;-76
2024/01/13 09:46:53;;;;;;;11.13;5.50;;;;;;;;;;4998673;28;20030;-76
2024/01/13 09:49:19;;;;;;;10.60;5.88;;;;;;;;;;4996035;28;20041;-76
2024/01/13 09:51:48;;;;;;;9.40;5.25;;;;;;;;;;4982376;28;20038;-76
2024/01/13 09:54:23;;;;;;;10.40;5.40;;;;;;;;;;5000328;28;20410;-76
2024/01/13 09:56:48;;;;;;;9.70;5.53;;;;;;;;;;4996386;28;20038;-76
2024/01/13 09:59:14;;;;;;;10.35;5.72;;;;;;;;;;4994661;28;20049;-77
2024/01/13 10:01:40;;;;;;;9.63;5.15;;;;;;;;;;4999280;28;20037;-77
2024/01/13 10:04:06;;;;;;;8.90;5.47;;;;;;;;;;4996306;28;20403;-77
2024/01/13 10:06:31;;;;;;;11.07;6.05;;;;;;;;;;5000265;28;20023;-76
2024/01/13 10:08:57;;;;;;;8.95;5.22;;;;;;;;;;4999204;28;20034;-76
2024/01/13 10:11:22;;;;;;;9.52;5.10;;;;;;;;;;4999750;28;20031;-76
2024/01/13 10:14:03;;;;;;;9.20;5.03;;;;;;;;;;4992892;28;20038;-76
2024/01/13 10:16:29;;;;;;;12.77;5.72;;;;;;;;;;4998144;28;20034;-76
2024/01/13 10:19:07;;;;;;;9.57;5.15;;;;;;;;;;4998346;28;20033;-76
2024/01/13 10:21:33;;;;;;;11.20;6.07;;;;;;;;;;4995313;28;20402;-77
2024/01/13 10:24:00;;;;;;;8.95;5.10;;;;;;;;;;4998240;28;20034;-77
2024/01/13 10:26:26;;;;;;;16.05;7.20;;;;;;;;;;4999403;28;20038;-77
2024/01/13 10:28:52;;;;;;;8.93;5.40;;;;;;;;;;4997367;28;20050;-77
2024/01/13 10:31:18;;;;;;;10.05;5.60;;;;;;;;;;4976942;28;20038;-77
2024/01/13 10:33:49;;;;;;;11.07;6.03;;;;;;;;;;4992334;28;20487;-77
2024/01/13 10:36:15;;;;;;;10.83;5.60;;;;;;;;;;4999034;28;20403;-77
2024/01/13 10:38:42;;;;;;;10.50;6.32;;;;;;;;;;4996972;28;20034;-78
2024/01/13 10:41:09;;;;;;;7.60;4.60;;;;;;;;;;4974289;28;20102;-77
2024/01/13 10:43:37;;;;;;;9.40;5.65;;;;;;;;;;4994336;28;20038;-77
2024/01/13 10:46:06;;;;;;;11.07;5.22;;;;;;;;;;4966231;28;20088;-78
2024/01/13 10:48:37;;;;;;;8.48;4.88;;;;;;;;;;4999552;28;20952;-78
2024/01/13 10:51:06;;;;;;;7.65;4.78;;;;;;;;;;5002708;28;20037;-77
2024/01/13 10:53:32;;;;;;;7.82;4.32;;;;;;;;;;4995302;28;20184;-78
2024/01/13 10:55:57;;;;;;;9.15;4.93;;;;;;;;;;4995567;28;20074;-78
2024/01/13 10:58:24;;;;;;;9.52;5.05;;;;;;;;;;4996223;28;20483;-79
2024/01/13 11:00:49;;;;;;;8.07;4.65;;;;;;;;;;4999234;28;20030;-79
2024/01/13 11:03:23;;;;;;;8.23;4.97;;;;;;;;;;4982380;28;20023;-79
2024/01/13 11:05:49;;;;;;;9.27;5.40;;;;;;;;;;4982508;28;20113;-79
2024/01/13 11:08:14;;;;;;;10.73;6.25;;;;;;;;;;4984388;28;20105;-78
2024/01/13 11:10:41;;;;;;;8.65;4.90;;;;;;;;;;4999624;28;20038;-78
2024/01/13 11:13:09;;;;;;;8.98;4.90;;;;;;;;;;4979559;28;20448;-79
2024/01/13 11:15:38;;;;;;;9.73;5.53;;;;;;;;;;4997036;28;20156;-78
2024/01/13 11:18:04;;;;;;;7.32;4.63;;;;;;;;;;4998337;28;20062;-79
2024/01/13 11:20:29;;;;;;;10.05;5.32;;;;;;;;;;4979154;28;20077;-78
2024/01/13 11:22:58;;;;;;;9.80;5.68;;;;;;;;;;4979866;28;20109;-78
2024/01/13 11:25:25;;;;;;;9.10;5.50;;;;;;;;;;4979736;28;20496;-78
2024/01/13 11:28:00;;;;;;;8.52;4.88;;;;;;;;;;4981092;28;20108;-77
2024/01/13 11:30:28;;;;;;;9.95;6.25;;;;;;;;;;4999088;28;20491;-78
2024/01/13 11:32:54;;;;;;;8.52;4.90;;;;;;;;;;4998535;28;20071;-78
2024/01/13 11:35:19;;;;;;;7.88;4.57;;;;;;;;;;4992139;28;20039;-77
2024/01/13 11:37:45;;;;;;;7.47;4.47;;;;;;;;;;4977245;28;20049;-79
2024/01/13 11:40:11;;;;;;;7.95;4.63;;;;;;;;;;4977847;28;20080;-78
2024/01/13 11:42:37;;;;;;;8.35;4.97;;;;;;;;;;4997967;28;20176;-78
2024/01/13 11:45:03;;;;;;;7.30;4.70;;;;;;;;;;4996209;28;20080;-78
2024/01/13 11:47:29;;;;;;;8.93;5.03;;;;;;;;;;4997960;28;20034;-79
2024/01/13 11:49:54;;;;;;;8.73;4.72;;;;;;;;;;4978832;28;20042;-78
2024/01/13 11:52:32;;;;;;;9.35;5.50;;;;;;;;;;4992872;28;20113;-78
2024/01/13 11:54:58;;;;;;;9.02;5.35;;;;;;;;;;4977269;28;20034;-79
2024/01/13 11:57:23;;;;;;;10.07;5.60;;;;;;;;;;4967400;28;20498;-78
2024/01/13 11:59:48;;;;;;;7.22;4.32;;;;;;;;;;4998274;28;20491;-79
2024/01/13 12:02:13;;;;;;;8.43;5.05;;;;;;;;;;4978460;28;20038;-79
2024/01/13 12:04:41;;;;;;;8.80;5.50;;;;;;;;;;4978504;28;20076;-79
2024/01/13 12:07:08;;;;;;;9.13;5.38;;;;;;;;;;4977876;28;20027;-78
2024/01/13 12:09:33;;;;;;;8.60;5.50;;;;;;;;;;4998118;28;20030;-79
2024/01/13 12:11:59;;;;;;;8.15;4.72;;;;;;;;;;4998939;28;20513;-78
2024/01/13 12:14:28;;;;;;;8.88;4.30;;;;;;;;;;5001894;28;20045;-78
2024/01/13 12:16:55;;;;;;;6.88;4.40;;;;;;;;;;4995819;28;20129;-78
2024/01/13 12:19:20;;;;;;;7.85;4.95;;;;;;;;;;4988975;28;20030;-78
2024/01/13 12:21:46;;;;;;;8.50;5.30;;;;;;;;;;4974383;28;20026;-79
2024/01/13 12:24:11;;;;;;;9.15;4.90;;;;;;;;;;4984714;28;20033;-78
2024/01/13 12:26:36;;;;;;;7.35;4.60;;;;;;;;;;4982024;28;20122;-78
2024/01/13 12:29:01;;;;;;;9.60;5.68;;;;;;;;;;4998709;28;20418;-78
2024/01/13 12:31:27;;;;;;;10.38;5.97;;;;;;;;;;4999474;28;20116;-79
2024/01/13 12:33:52;;;;;;;9.07;4.90;;;;;;;;;;4993953;28;20435;-78
2024/01/13 12:36:18;;;;;;;8.40;5.40;;;;;;;;;;4985265;28;20087;-78
2024/01/13 12:38:43;;;;;;;9.23;5.25;;;;;;;;;;4997080;28;20041;-79
2024/01/13 12:41:09;;;;;;;9.23;4.80;;;;;;;;;;4997984;28;20629;-78
2024/01/13 12:43:36;;;;;;;8.73;5.65;;;;;;;;;;5001187;28;20648;-78
2024/01/13 12:46:02;;;;;;;10.27;6.35;;;;;;;;;;4978851;28;20030;-78
2024/01/13 12:48:28;;;;;;;9.10;5.90;;;;;;;;;;5000437;28;20065;-77
2024/01/13 12:50:53;;;;;;;9.65;5.32;;;;;;;;;;4982713;28;20077;-77
2024/01/13 12:53:25;;;;;;;7.85;4.68;;;;;;;;;;4983286;28;20522;-78
2024/01/13 12:55:50;;;;;;;11.48;5.03;;;;;;;;;;4986411;28;20100;-78
2024/01/13 12:58:16;;;;;;;9.63;5.43;;;;;;;;;;4996082;28;20599;-78
2024/01/13 13:00:41;;;;;;;9.10;5.40;;;;;;;;;;4982087;28;20407;-79
2024/01/13 13:03:06;;;;;;;9.68;5.88;;;;;;;;;;4998027;28;20031;-78
2024/01/13 13:05:31;;;;;;;9.77;5.68;;;;;;;;;;5002026;28;20023;-78
2024/01/13 13:07:56;;;;;;;10.18;6.22;;;;;;;;;;5001520;28;20394;-78
2024/01/13 13:10:22;;;;;;;9.68;6.20;;;;;;;;;;4993162;28;20045;-78
2024/01/13 13:12:49;;;;;;;9.98;5.72;;;;;;;;;;4984323;28;20461;-77
2024/01/13 13:15:14;;;;;;;9.32;5.55;;;;;;;;;;4989162;28;20030;-78
2024/01/13 13:17:40;;;;;;;10.30;5.38;;;;;;;;;;4999869;28;20038;-78
2024/01/13 13:20:08;;;;;;;10.90;6.82;;;;;;;;;;4981496;28;20030;-76
2024/01/13 13:22:37;;;;;;;11.02;6.55;;;;;;;;;;5000125;28;20399;-76
2024/01/13 13:25:05;;;;;;;12.82;6.97;;;;;;;;;;4998455;28;20084;-76
2024/01/13 13:27:31;;;;;;;11.98;6.32;;;;;;;;;;4981732;28;20037;-76
2024/01/13 13:29:57;;;;;;;13.38;7.05;;;;;;;;;;4998131;28;20446;-76
2024/01/13 13:32:22;;;;;;;12.57;7.00;;;;;;;;;;4994865;28;20030;-76
2024/01/13 13:34:47;;;;;;;12.65;7.35;;;;;;;;;;5002755;28;20026;-75
2024/01/13 13:37:12;;;;;;;11.75;6.88;;;;;;;;;;4982683;28;20097;-76
2024/01/13 13:39:37;;;;;;;11.85;7.50;;;;;;;;;;4996325;28;20045;-75
2024/01/13 13:42:03;;;;;;;12.50;7.95;;;;;;;;;;4976969;28;20435;-76
2024/01/13 13:44:30;;;;;;;11.85;7.00;;;;;;;;;;4999471;28;20033;-76
2024/01/13 13:46:55;;;;;;;11.77;6.75;;;;;;;;;;4997356;28;20026;-75
2024/01/13 13:49:21;;;;;;;13.45;7.97;;;;;;;;;;4981441;28;20026;-76
2024/01/13 13:51:50;;;;;;;11.50;6.82;;;;;;;;;;4999471;28;20561;-76
2024/01/13 13:54:15;;;;;;;14.63;8.63;;;;;;;;;;4993590;28;20045;-76
2024/01/13 13:56:40;;;;;;;14.70;7.53;;;;;;;;;;4997223;28;20388;-74
2024/01/13 13:59:05;;;;;;;13.85;8.32;;;;;;;;;;4997634;28;20038;-76
2024/01/13 14:01:30;;;;;;;13.02;7.97;;;;;;;;;;4997183;28;20038;-76
2024/01/13 14:03:56;;;;;;;15.63;8.95;;;;;;;;;;4999529;28;20056;-75
2024/01/13 14:06:21;;;;;;;12.80;7.85;;;;;;;;;;5001437;28;20042;-75
2024/01/13 14:08:47;;;;;;;13.82;7.75;;;;;;;;;;4994074;28;20042;-76
2024/01/13 14:11:12;;;;;;;12.18;8.00;;;;;;;;;;4994760;28;20038;-76
2024/01/13 14:13:37;;;;;;;13.10;8.13;;;;;;;;;;4997685;28;20038;-77
2024/01/13 14:16:02;;;;;;;12.77;7.93;;;;;;;;;;4999084;28;20514;-76
2024/01/13 14:18:33;;;;;;;14.40;8.27;;;;;;;;;;4981065;28;20125;-76
2024/01/13 14:20:58;;;;;;;13.48;8.18;;;;;;;;;;4993485;28;20491;-76
2024/01/13 14:23:23;;;;;;;12.77;8.57;;;;;;;;;;4993266;28;20022;-75